sensor_id;sensor_type;location;lat;lon;timestamp;P1;durP1;ratioP1;P2;durP2;ratioP2
20653;SDS011;21083;50.898;4.902;2023-02-28T00:01:44;14.35;;;5.72;;
20653;SDS011;21083;50.898;4.902;2023-02-28T00:04:12;10.27;;;4.43;;
20653;SDS011;21083;50.898;4.902;2023-02-28T00:06:39;11.90;;;4.35;;
20653;SDS011;21083;50.898;4.902;2023-02-28T00:09:07;10.77;;;4.85;;
20653;SDS011;21083;50.898;4.902;2023-02-28T00:11:33;11.45;;;4.55;;
20653;SDS011;21083;50.898;4.902;2023-02-28T00:14:03;13.05;;;5.30;;
20653;SDS011;21083;50.898;4.902;2023-02-28T00:16:29;16.55;;;5.20;;
20653;SDS011;21083;50.898;4.902;2023-02-28T00:18:56;15.88;;;5.05;;
20653;SDS011;21083;50.898;4.902;2023-02-28T00:21:25;12.23;;;5.07;;
20653;SDS011;21083;50.898;4.902;2023-02-28T00:23:52;13.05;;;5.18;;
20653;SDS011;21083;50.898;4.902;2023-02-28T00:26:19;9.88;;;4.75;;
20653;SDS011;21083;50.898;4.902;2023-02-28T00:28:46;15.75;;;4.50;;
20653;SDS011;21083;50.898;4.902;2023-02-28T00:31:13;12.32;;;5.10;;
20653;SDS011;21083;50.898;4.902;2023-02-28T00:33:40;11.65;;;4.40;;
20653;SDS011;21083;50.898;4.902;2023-02-28T00:36:07;16.63;;;4.95;;
20653;SDS011;21083;50.898;4.902;2023-02-28T00:38:37;11.27;;;4.72;;
20653;SDS011;21083;50.898;4.902;2023-02-28T00:41:05;11.48;;;4.25;;
20653;SDS011;21083;50.898;4.902;2023-02-28T00:43:33;14.52;;;5.35;;
20653;SDS011;21083;50.898;4.902;2023-02-28T00:46:02;13.30;;;4.38;;
20653;SDS011;21083;50.898;4.902;2023-02-28T00:48:30;13.77;;;5.38;;
20653;SDS011;21083;50.898;4.902;2023-02-28T00:50:57;15.00;;;5.10;;
20653;SDS011;21083;50.898;4.902;2023-02-28T00:53:24;13.07;;;5.07;;
20653;SDS011;21083;50.898;4.902;2023-02-28T00:55:53;14.10;;;5.18;;
20653;SDS011;21083;50.898;4.902;2023-02-28T00:58:20;13.93;;;4.55;;
20653;SDS011;21083;50.898;4.902;2023-02-28T01:00:46;12.10;;;4.72;;
20653;SDS011;21083;50.898;4.902;2023-02-28T01:03:14;15.82;;;4.97;;
20653;SDS011;21083;50.898;4.902;2023-02-28T01:05:41;13.48;;;5.05;;
20653;SDS011;21083;50.898;4.902;2023-02-28T01:08:08;16.00;;;5.10;;
20653;SDS011;21083;50.898;4.902;2023-02-28T01:10:35;14.43;;;5.45;;
20653;SDS011;21083;50.898;4.902;2023-02-28T01:13:04;11.88;;;5.00;;
20653;SDS011;21083;50.898;4.902;2023-02-28T01:15:31;12.65;;;5.00;;
20653;SDS011;21083;50.898;4.902;2023-02-28T01:17:59;17.17;;;5.75;;
20653;SDS011;21083;50.898;4.902;2023-02-28T01:20:25;14.15;;;4.82;;
20653;SDS011;21083;50.898;4.902;2023-02-28T01:22:52;13.75;;;5.60;;
20653;SDS011;21083;50.898;4.902;2023-02-28T01:25:19;15.55;;;5.43;;
20653;SDS011;21083;50.898;4.902;2023-02-28T01:27:46;12.82;;;5.15;;
20653;SDS011;21083;50.898;4.902;2023-02-28T01:30:15;14.88;;;5.43;;
20653;SDS011;21083;50.898;4.902;2023-02-28T01:32:42;12.70;;;5.57;;
20653;SDS011;21083;50.898;4.902;2023-02-28T01:35:09;11.68;;;5.38;;
20653;SDS011;21083;50.898;4.902;2023-02-28T01:37:35;11.70;;;4.78;;
20653;SDS011;21083;50.898;4.902;2023-02-28T01:40:03;14.43;;;5.18;;
20653;SDS011;21083;50.898;4.902;2023-02-28T01:42:30;15.00;;;5.07;;
20653;SDS011;21083;50.898;4.902;2023-02-28T01:44:59;11.57;;;5.30;;
20653;SDS011;21083;50.898;4.902;2023-02-28T01:47:30;14.00;;;5.72;;
20653;SDS011;21083;50.898;4.902;2023-02-28T01:50:00;13.27;;;4.97;;
20653;SDS011;21083;50.898;4.902;2023-02-28T01:52:30;14.20;;;5.47;;
20653;SDS011;21083;50.898;4.902;2023-02-28T01:54:59;16.90;;;6.18;;
20653;SDS011;21083;50.898;4.902;2023-02-28T01:57:29;11.48;;;5.25;;
20653;SDS011;21083;50.898;4.902;2023-02-28T02:00:03;15.73;;;5.75;;
20653;SDS011;21083;50.898;4.902;2023-02-28T02:02:35;13.70;;;5.57;;
20653;SDS011;21083;50.898;4.902;2023-02-28T02:05:04;9.82;;;4.70;;
20653;SDS011;21083;50.898;4.902;2023-02-28T02:07:33;13.80;;;5.55;;
20653;SDS011;21083;50.898;4.902;2023-02-28T02:10:04;19.75;;;5.85;;
20653;SDS011;21083;50.898;4.902;2023-02-28T02:12:55;16.95;;;5.68;;
20653;SDS011;21083;50.898;4.902;2023-02-28T02:15:35;17.08;;;5.22;;
20653;SDS011;21083;50.898;4.902;2023-02-28T02:18:09;13.80;;;5.78;;
20653;SDS011;21083;50.898;4.902;2023-02-28T02:23:57;14.13;;;5.28;;
20653;SDS011;21083;50.898;4.902;2023-02-28T02:26:50;18.65;;;5.90;;
20653;SDS011;21083;50.898;4.902;2023-02-28T02:29:41;13.68;;;5.68;;
20653;SDS011;21083;50.898;4.902;2023-02-28T02:35:39;15.48;;;5.15;;
20653;SDS011;21083;50.898;4.902;2023-02-28T02:38:09;14.35;;;6.10;;
20653;SDS011;21083;50.898;4.902;2023-02-28T02:40:50;15.43;;;5.55;;
20653;SDS011;21083;50.898;4.902;2023-02-28T02:43:24;14.27;;;6.00;;
20653;SDS011;21083;50.898;4.902;2023-02-28T02:45:56;15.18;;;6.20;;
20653;SDS011;21083;50.898;4.902;2023-02-28T02:48:28;12.85;;;6.07;;
20653;SDS011;21083;50.898;4.902;2023-02-28T02:51:00;15.38;;;6.25;;
20653;SDS011;21083;50.898;4.902;2023-02-28T02:53:32;13.45;;;5.65;;
20653;SDS011;21083;50.898;4.902;2023-02-28T02:56:03;17.85;;;5.85;;
20653;SDS011;21083;50.898;4.902;2023-02-28T02:58:33;14.80;;;5.85;;
20653;SDS011;21083;50.898;4.902;2023-02-28T03:01:07;11.52;;;5.55;;
20653;SDS011;21083;50.898;4.902;2023-02-28T03:03:36;14.68;;;6.03;;
20653;SDS011;21083;50.898;4.902;2023-02-28T03:06:05;14.43;;;5.88;;
20653;SDS011;21083;50.898;4.902;2023-02-28T03:08:33;15.63;;;6.18;;
20653;SDS011;21083;50.898;4.902;2023-02-28T03:11:02;14.88;;;6.28;;
20653;SDS011;21083;50.898;4.902;2023-02-28T03:13:40;13.32;;;5.72;;
20653;SDS011;21083;50.898;4.902;2023-02-28T03:16:19;19.42;;;6.95;;
20653;SDS011;21083;50.898;4.902;2023-02-28T03:18:57;15.20;;;5.78;;
20653;SDS011;21083;50.898;4.902;2023-02-28T03:21:33;15.18;;;6.10;;
20653;SDS011;21083;50.898;4.902;2023-02-28T03:24:05;14.25;;;6.15;;
20653;SDS011;21083;50.898;4.902;2023-02-28T03:26:38;13.15;;;5.82;;
20653;SDS011;21083;50.898;4.902;2023-02-28T03:29:10;12.32;;;6.03;;
20653;SDS011;21083;50.898;4.902;2023-02-28T03:31:43;20.05;;;5.75;;
20653;SDS011;21083;50.898;4.902;2023-02-28T03:34:16;14.45;;;5.47;;
20653;SDS011;21083;50.898;4.902;2023-02-28T03:36:50;16.30;;;6.55;;
20653;SDS011;21083;50.898;4.902;2023-02-28T03:39:20;17.00;;;6.15;;
20653;SDS011;21083;50.898;4.902;2023-02-28T03:41:51;13.52;;;5.95;;
20653;SDS011;21083;50.898;4.902;2023-02-28T03:44:21;15.48;;;6.82;;
20653;SDS011;21083;50.898;4.902;2023-02-28T03:46:52;11.95;;;5.97;;
20653;SDS011;21083;50.898;4.902;2023-02-28T03:49:24;18.27;;;6.80;;
20653;SDS011;21083;50.898;4.902;2023-02-28T03:51:56;13.55;;;6.40;;
20653;SDS011;21083;50.898;4.902;2023-02-28T03:54:27;15.77;;;5.72;;
20653;SDS011;21083;50.898;4.902;2023-02-28T03:56:59;16.38;;;6.30;;
20653;SDS011;21083;50.898;4.902;2023-02-28T03:59:30;15.02;;;5.80;;
20653;SDS011;21083;50.898;4.902;2023-02-28T04:02:03;13.98;;;6.05;;
20653;SDS011;21083;50.898;4.902;2023-02-28T04:04:30;17.85;;;7.13;;
20653;SDS011;21083;50.898;4.902;2023-02-28T04:07:02;20.85;;;6.55;;
20653;SDS011;21083;50.898;4.902;2023-02-28T04:09:30;23.52;;;7.07;;
20653;SDS011;21083;50.898;4.902;2023-02-28T04:11:58;17.92;;;6.43;;
20653;SDS011;21083;50.898;4.902;2023-02-28T04:14:25;18.85;;;6.25;;
20653;SDS011;21083;50.898;4.902;2023-02-28T04:16:52;15.88;;;6.88;;
20653;SDS011;21083;50.898;4.902;2023-02-28T04:19:19;14.68;;;7.25;;
20653;SDS011;21083;50.898;4.902;2023-02-28T04:21:46;17.15;;;7.38;;
20653;SDS011;21083;50.898;4.902;2023-02-28T04:24:16;19.35;;;6.30;;
20653;SDS011;21083;50.898;4.902;2023-02-28T04:26:45;17.13;;;6.55;;
20653;SDS011;21083;50.898;4.902;2023-02-28T04:29:14;15.98;;;7.43;;
20653;SDS011;21083;50.898;4.902;2023-02-28T04:31:45;13.68;;;6.40;;
20653;SDS011;21083;50.898;4.902;2023-02-28T04:34:12;17.30;;;7.32;;
20653;SDS011;21083;50.898;4.902;2023-02-28T04:36:39;17.52;;;8.23;;
20653;SDS011;21083;50.898;4.902;2023-02-28T04:39:06;16.52;;;7.80;;
20653;SDS011;21083;50.898;4.902;2023-02-28T04:41:36;16.10;;;7.57;;
20653;SDS011;21083;50.898;4.902;2023-02-28T04:44:03;16.83;;;7.95;;
20653;SDS011;21083;50.898;4.902;2023-02-28T04:46:30;17.50;;;7.30;;
20653;SDS011;21083;50.898;4.902;2023-02-28T04:48:57;16.63;;;7.85;;
20653;SDS011;21083;50.898;4.902;2023-02-28T04:51:24;17.70;;;7.72;;
20653;SDS011;21083;50.898;4.902;2023-02-28T04:53:51;20.17;;;8.13;;
20653;SDS011;21083;50.898;4.902;2023-02-28T04:56:19;18.17;;;8.33;;
20653;SDS011;21083;50.898;4.902;2023-02-28T04:58:47;14.52;;;7.47;;
20653;SDS011;21083;50.898;4.902;2023-02-28T05:01:19;17.73;;;8.43;;
20653;SDS011;21083;50.898;4.902;2023-02-28T05:03:48;18.05;;;7.78;;
20653;SDS011;21083;50.898;4.902;2023-02-28T05:06:16;20.80;;;7.80;;
20653;SDS011;21083;50.898;4.902;2023-02-28T05:08:43;19.35;;;8.05;;
20653;SDS011;21083;50.898;4.902;2023-02-28T05:11:15;18.55;;;8.18;;
20653;SDS011;21083;50.898;4.902;2023-02-28T05:13:44;16.92;;;7.78;;
20653;SDS011;21083;50.898;4.902;2023-02-28T05:16:13;19.02;;;8.35;;
20653;SDS011;21083;50.898;4.902;2023-02-28T05:18:42;19.20;;;7.82;;
20653;SDS011;21083;50.898;4.902;2023-02-28T05:21:23;16.17;;;7.88;;
20653;SDS011;21083;50.898;4.902;2023-02-28T05:23:52;19.50;;;8.50;;
20653;SDS011;21083;50.898;4.902;2023-02-28T05:26:20;19.08;;;8.35;;
20653;SDS011;21083;50.898;4.902;2023-02-28T05:28:47;20.37;;;8.93;;
20653;SDS011;21083;50.898;4.902;2023-02-28T05:31:15;19.00;;;7.93;;
20653;SDS011;21083;50.898;4.902;2023-02-28T05:33:43;19.08;;;7.68;;
20653;SDS011;21083;50.898;4.902;2023-02-28T05:36:10;19.17;;;8.88;;
20653;SDS011;21083;50.898;4.902;2023-02-28T05:38:37;17.58;;;9.30;;
20653;SDS011;21083;50.898;4.902;2023-02-28T05:41:07;17.98;;;8.05;;
20653;SDS011;21083;50.898;4.902;2023-02-28T05:43:34;20.95;;;9.25;;
20653;SDS011;21083;50.898;4.902;2023-02-28T05:46:03;19.20;;;9.02;;
20653;SDS011;21083;50.898;4.902;2023-02-28T05:48:32;20.48;;;8.60;;
20653;SDS011;21083;50.898;4.902;2023-02-28T05:50:59;21.05;;;8.50;;
20653;SDS011;21083;50.898;4.902;2023-02-28T05:53:27;19.35;;;8.93;;
20653;SDS011;21083;50.898;4.902;2023-02-28T05:55:55;19.25;;;8.90;;
20653;SDS011;21083;50.898;4.902;2023-02-28T05:58:22;20.67;;;8.70;;
20653;SDS011;21083;50.898;4.902;2023-02-28T06:00:50;18.17;;;8.55;;
20653;SDS011;21083;50.898;4.902;2023-02-28T06:03:17;18.53;;;8.77;;
20653;SDS011;21083;50.898;4.902;2023-02-28T06:05:45;18.50;;;8.70;;
20653;SDS011;21083;50.898;4.902;2023-02-28T06:08:12;18.93;;;8.40;;
20653;SDS011;21083;50.898;4.902;2023-02-28T06:10:39;23.30;;;9.57;;
20653;SDS011;21083;50.898;4.902;2023-02-28T06:13:06;23.07;;;10.93;;
20653;SDS011;21083;50.898;4.902;2023-02-28T06:15:33;24.67;;;11.00;;
20653;SDS011;21083;50.898;4.902;2023-02-28T06:18:00;23.57;;;10.73;;
20653;SDS011;21083;50.898;4.902;2023-02-28T06:20:27;24.00;;;11.20;;
20653;SDS011;21083;50.898;4.902;2023-02-28T06:22:56;20.60;;;9.87;;
20653;SDS011;21083;50.898;4.902;2023-02-28T06:25:24;19.05;;;9.15;;
20653;SDS011;21083;50.898;4.902;2023-02-28T06:27:51;20.73;;;10.00;;
20653;SDS011;21083;50.898;4.902;2023-02-28T06:30:19;24.93;;;10.07;;
20653;SDS011;21083;50.898;4.902;2023-02-28T06:32:51;21.08;;;9.45;;
20653;SDS011;21083;50.898;4.902;2023-02-28T06:35:18;22.10;;;10.23;;
20653;SDS011;21083;50.898;4.902;2023-02-28T06:37:45;22.43;;;9.43;;
20653;SDS011;21083;50.898;4.902;2023-02-28T06:40:14;23.38;;;10.10;;
20653;SDS011;21083;50.898;4.902;2023-02-28T06:42:41;22.80;;;9.80;;
20653;SDS011;21083;50.898;4.902;2023-02-28T06:45:09;22.27;;;10.73;;
20653;SDS011;21083;50.898;4.902;2023-02-28T06:47:36;19.73;;;10.35;;
20653;SDS011;21083;50.898;4.902;2023-02-28T06:50:04;22.47;;;10.60;;
20653;SDS011;21083;50.898;4.902;2023-02-28T06:52:32;22.35;;;10.35;;
20653;SDS011;21083;50.898;4.902;2023-02-28T06:55:01;25.23;;;11.55;;
20653;SDS011;21083;50.898;4.902;2023-02-28T06:57:30;18.10;;;9.68;;
20653;SDS011;21083;50.898;4.902;2023-02-28T06:59:58;23.88;;;10.23;;
20653;SDS011;21083;50.898;4.902;2023-02-28T07:02:25;25.90;;;9.32;;
20653;SDS011;21083;50.898;4.902;2023-02-28T07:04:52;23.30;;;9.23;;
20653;SDS011;21083;50.898;4.902;2023-02-28T07:07:19;19.50;;;9.38;;
20653;SDS011;21083;50.898;4.902;2023-02-28T07:09:46;26.38;;;9.52;;
20653;SDS011;21083;50.898;4.902;2023-02-28T07:12:13;19.67;;;9.65;;
20653;SDS011;21083;50.898;4.902;2023-02-28T07:14:41;20.90;;;9.47;;
20653;SDS011;21083;50.898;4.902;2023-02-28T07:17:08;24.70;;;9.57;;
20653;SDS011;21083;50.898;4.902;2023-02-28T07:19:37;19.08;;;8.80;;
20653;SDS011;21083;50.898;4.902;2023-02-28T07:22:04;21.70;;;10.63;;
20653;SDS011;21083;50.898;4.902;2023-02-28T07:24:31;23.15;;;9.02;;
20653;SDS011;21083;50.898;4.902;2023-02-28T07:26:58;18.27;;;9.07;;
20653;SDS011;21083;50.898;4.902;2023-02-28T07:29:26;20.38;;;9.07;;
20653;SDS011;21083;50.898;4.902;2023-02-28T07:31:54;17.55;;;8.60;;
20653;SDS011;21083;50.898;4.902;2023-02-28T07:34:21;23.65;;;8.73;;
20653;SDS011;21083;50.898;4.902;2023-02-28T07:36:49;21.88;;;8.85;;
20653;SDS011;21083;50.898;4.902;2023-02-28T07:39:19;21.63;;;8.90;;
20653;SDS011;21083;50.898;4.902;2023-02-28T07:41:46;21.05;;;7.57;;
20653;SDS011;21083;50.898;4.902;2023-02-28T07:44:13;14.48;;;7.70;;
20653;SDS011;21083;50.898;4.902;2023-02-28T07:46:40;19.90;;;8.52;;
20653;SDS011;21083;50.898;4.902;2023-02-28T07:49:08;19.47;;;8.53;;
20653;SDS011;21083;50.898;4.902;2023-02-28T07:51:35;20.17;;;7.50;;
20653;SDS011;21083;50.898;4.902;2023-02-28T07:54:02;16.83;;;7.85;;
20653;SDS011;21083;50.898;4.902;2023-02-28T07:56:29;13.80;;;6.82;;
20653;SDS011;21083;50.898;4.902;2023-02-28T07:58:56;15.05;;;7.22;;
20653;SDS011;21083;50.898;4.902;2023-02-28T08:01:23;21.75;;;7.43;;
20653;SDS011;21083;50.898;4.902;2023-02-28T08:03:50;14.25;;;6.97;;
20653;SDS011;21083;50.898;4.902;2023-02-28T08:06:19;15.68;;;6.93;;
20653;SDS011;21083;50.898;4.902;2023-02-28T08:08:47;18.23;;;6.80;;
20653;SDS011;21083;50.898;4.902;2023-02-28T08:11:14;17.73;;;6.90;;
20653;SDS011;21083;50.898;4.902;2023-02-28T08:13:42;18.67;;;6.72;;
20653;SDS011;21083;50.898;4.902;2023-02-28T08:16:09;15.23;;;6.80;;
20653;SDS011;21083;50.898;4.902;2023-02-28T08:18:37;16.85;;;6.80;;
20653;SDS011;21083;50.898;4.902;2023-02-28T08:21:07;14.23;;;6.47;;
20653;SDS011;21083;50.898;4.902;2023-02-28T08:23:35;14.05;;;5.63;;
20653;SDS011;21083;50.898;4.902;2023-02-28T08:26:02;18.08;;;6.13;;
20653;SDS011;21083;50.898;4.902;2023-02-28T08:28:30;13.75;;;5.25;;
20653;SDS011;21083;50.898;4.902;2023-02-28T08:30:57;23.33;;;5.95;;
20653;SDS011;21083;50.898;4.902;2023-02-28T08:33:24;12.18;;;4.53;;
20653;SDS011;21083;50.898;4.902;2023-02-28T08:35:53;14.60;;;5.22;;
20653;SDS011;21083;50.898;4.902;2023-02-28T08:38:20;12.38;;;5.25;;
20653;SDS011;21083;50.898;4.902;2023-02-28T08:40:49;14.20;;;5.28;;
20653;SDS011;21083;50.898;4.902;2023-02-28T08:43:15;13.20;;;5.18;;
20653;SDS011;21083;50.898;4.902;2023-02-28T08:45:42;10.18;;;4.80;;
20653;SDS011;21083;50.898;4.902;2023-02-28T08:48:09;13.38;;;5.28;;
20653;SDS011;21083;50.898;4.902;2023-02-28T08:50:36;11.02;;;4.30;;
20653;SDS011;21083;50.898;4.902;2023-02-28T08:53:03;12.95;;;4.40;;
20653;SDS011;21083;50.898;4.902;2023-02-28T08:55:30;11.68;;;4.32;;
20653;SDS011;21083;50.898;4.902;2023-02-28T08:57:58;20.67;;;5.00;;
20653;SDS011;21083;50.898;4.902;2023-02-28T09:00:26;15.55;;;4.82;;
20653;SDS011;21083;50.898;4.902;2023-02-28T09:02:53;12.02;;;5.03;;
20653;SDS011;21083;50.898;4.902;2023-02-28T09:05:20;11.35;;;4.78;;
20653;SDS011;21083;50.898;4.902;2023-02-28T09:07:46;11.63;;;4.05;;
20653;SDS011;21083;50.898;4.902;2023-02-28T09:10:14;18.10;;;4.57;;
20653;SDS011;21083;50.898;4.902;2023-02-28T09:12:40;8.98;;;4.30;;
20653;SDS011;21083;50.898;4.902;2023-02-28T09:15:09;15.10;;;4.50;;
20653;SDS011;21083;50.898;4.902;2023-02-28T09:17:36;13.30;;;4.07;;
20653;SDS011;21083;50.898;4.902;2023-02-28T09:20:04;15.13;;;4.45;;
20653;SDS011;21083;50.898;4.902;2023-02-28T09:22:32;14.73;;;4.55;;
20653;SDS011;21083;50.898;4.902;2023-02-28T09:24:59;13.38;;;6.20;;
20653;SDS011;21083;50.898;4.902;2023-02-28T09:27:25;16.33;;;5.35;;
20653;SDS011;21083;50.898;4.902;2023-02-28T09:29:52;9.55;;;4.45;;
20653;SDS011;21083;50.898;4.902;2023-02-28T09:32:20;9.10;;;3.90;;
20653;SDS011;21083;50.898;4.902;2023-02-28T09:34:47;12.48;;;3.80;;
20653;SDS011;21083;50.898;4.902;2023-02-28T09:37:14;14.63;;;4.63;;
20653;SDS011;21083;50.898;4.902;2023-02-28T09:39:41;9.30;;;3.25;;
20653;SDS011;21083;50.898;4.902;2023-02-28T09:42:11;11.25;;;3.67;;
20653;SDS011;21083;50.898;4.902;2023-02-28T09:44:47;10.00;;;3.80;;
20653;SDS011;21083;50.898;4.902;2023-02-28T09:47:17;11.90;;;4.63;;
20653;SDS011;21083;50.898;4.902;2023-02-28T09:49:52;13.27;;;4.00;;
20653;SDS011;21083;50.898;4.902;2023-02-28T09:52:21;10.35;;;3.83;;
20653;SDS011;21083;50.898;4.902;2023-02-28T09:54:54;12.35;;;4.28;;
20653;SDS011;21083;50.898;4.902;2023-02-28T09:57:24;9.05;;;3.22;;
20653;SDS011;21083;50.898;4.902;2023-02-28T10:00:01;7.97;;;2.72;;
20653;SDS011;21083;50.898;4.902;2023-02-28T10:02:56;8.15;;;3.03;;
20653;SDS011;21083;50.898;4.902;2023-02-28T10:05:38;9.63;;;3.10;;
20653;SDS011;21083;50.898;4.902;2023-02-28T10:08:11;9.15;;;2.88;;
20653;SDS011;21083;50.898;4.902;2023-02-28T10:10:42;12.15;;;3.10;;
20653;SDS011;21083;50.898;4.902;2023-02-28T10:13:19;7.82;;;2.53;;
20653;SDS011;21083;50.898;4.902;2023-02-28T10:15:51;8.02;;;2.80;;
20653;SDS011;21083;50.898;4.902;2023-02-28T10:18:26;8.15;;;2.65;;
20653;SDS011;21083;50.898;4.902;2023-02-28T10:20:56;9.93;;;2.58;;
20653;SDS011;21083;50.898;4.902;2023-02-28T10:23:27;7.55;;;2.85;;
20653;SDS011;21083;50.898;4.902;2023-02-28T10:25:58;9.15;;;2.78;;
20653;SDS011;21083;50.898;4.902;2023-02-28T10:28:28;7.43;;;2.97;;
20653;SDS011;21083;50.898;4.902;2023-02-28T10:30:57;7.07;;;2.60;;
20653;SDS011;21083;50.898;4.902;2023-02-28T10:33:28;6.28;;;2.30;;
20653;SDS011;21083;50.898;4.902;2023-02-28T10:35:56;10.55;;;2.75;;
20653;SDS011;21083;50.898;4.902;2023-02-28T10:38:25;9.75;;;3.20;;
20653;SDS011;21083;50.898;4.902;2023-02-28T10:41:02;7.50;;;2.67;;
20653;SDS011;21083;50.898;4.902;2023-02-28T10:43:35;6.10;;;2.55;;
20653;SDS011;21083;50.898;4.902;2023-02-28T10:46:10;7.00;;;2.42;;
20653;SDS011;21083;50.898;4.902;2023-02-28T10:48:59;6.22;;;2.30;;
20653;SDS011;21083;50.898;4.902;2023-02-28T10:51:33;6.18;;;2.30;;
20653;SDS011;21083;50.898;4.902;2023-02-28T10:54:02;5.50;;;2.15;;
20653;SDS011;21083;50.898;4.902;2023-02-28T10:56:30;3.70;;;1.70;;
20653;SDS011;21083;50.898;4.902;2023-02-28T10:58:58;6.65;;;2.10;;
20653;SDS011;21083;50.898;4.902;2023-02-28T11:01:34;5.38;;;2.08;;
20653;SDS011;21083;50.898;4.902;2023-02-28T11:04:04;8.15;;;2.40;;
20653;SDS011;21083;50.898;4.902;2023-02-28T11:06:43;25.23;;;3.63;;
20653;SDS011;21083;50.898;4.902;2023-02-28T11:09:15;6.03;;;2.17;;
20653;SDS011;21083;50.898;4.902;2023-02-28T11:11:47;4.80;;;1.63;;
20653;SDS011;21083;50.898;4.902;2023-02-28T11:14:17;5.00;;;2.05;;
20653;SDS011;21083;50.898;4.902;2023-02-28T11:16:47;4.43;;;1.98;;
20653;SDS011;21083;50.898;4.902;2023-02-28T11:19:19;3.88;;;1.58;;
20653;SDS011;21083;50.898;4.902;2023-02-28T11:21:53;7.65;;;2.10;;
20653;SDS011;21083;50.898;4.902;2023-02-28T11:24:24;6.15;;;1.90;;
20653;SDS011;21083;50.898;4.902;2023-02-28T11:26:53;6.72;;;2.30;;
20653;SDS011;21083;50.898;4.902;2023-02-28T11:29:22;5.53;;;2.10;;
20653;SDS011;21083;50.898;4.902;2023-02-28T11:32:03;10.88;;;3.33;;
20653;SDS011;21083;50.898;4.902;2023-02-28T11:34:44;11.93;;;3.80;;
20653;SDS011;21083;50.898;4.902;2023-02-28T11:37:13;5.18;;;2.10;;
20653;SDS011;21083;50.898;4.902;2023-02-28T11:39:43;16.58;;;9.32;;
20653;SDS011;21083;50.898;4.902;2023-02-28T11:42:23;5.40;;;2.72;;
20653;SDS011;21083;50.898;4.902;2023-02-28T11:45:12;6.60;;;2.55;;
20653;SDS011;21083;50.898;4.902;2023-02-28T11:47:48;8.82;;;3.30;;
20653;SDS011;21083;50.898;4.902;2023-02-28T11:50:26;33.47;;;16.83;;
20653;SDS011;21083;50.898;4.902;2023-02-28T11:53:05;17.73;;;9.98;;
20653;SDS011;21083;50.898;4.902;2023-02-28T11:55:41;11.68;;;4.72;;
20653;SDS011;21083;50.898;4.902;2023-02-28T11:58:16;10.48;;;4.10;;
20653;SDS011;21083;50.898;4.902;2023-02-28T12:04:10;12.10;;;6.57;;
20653;SDS011;21083;50.898;4.902;2023-02-28T12:06:45;13.73;;;4.20;;
20653;SDS011;21083;50.898;4.902;2023-02-28T12:09:20;14.48;;;9.07;;
20653;SDS011;21083;50.898;4.902;2023-02-28T12:11:58;25.83;;;16.05;;
20653;SDS011;21083;50.898;4.902;2023-02-28T12:14:46;24.15;;;12.95;;
20653;SDS011;21083;50.898;4.902;2023-02-28T12:17:24;6.28;;;3.00;;
20653;SDS011;21083;50.898;4.902;2023-02-28T12:20:02;39.25;;;22.13;;
20653;SDS011;21083;50.898;4.902;2023-02-28T12:22:41;32.80;;;20.80;;
20653;SDS011;21083;50.898;4.902;2023-02-28T12:28:10;11.93;;;7.13;;
20653;SDS011;21083;50.898;4.902;2023-02-28T12:30:41;6.28;;;3.00;;
20653;SDS011;21083;50.898;4.902;2023-02-28T12:33:16;7.28;;;2.13;;
20653;SDS011;21083;50.898;4.902;2023-02-28T12:35:47;4.75;;;1.90;;
20653;SDS011;21083;50.898;4.902;2023-02-28T12:38:18;4.88;;;2.03;;
20653;SDS011;21083;50.898;4.902;2023-02-28T12:40:49;6.45;;;2.13;;
20653;SDS011;21083;50.898;4.902;2023-02-28T12:43:20;5.32;;;2.00;;
20653;SDS011;21083;50.898;4.902;2023-02-28T12:45:52;10.25;;;2.63;;
20653;SDS011;21083;50.898;4.902;2023-02-28T12:48:24;7.28;;;3.15;;
20653;SDS011;21083;50.898;4.902;2023-02-28T12:50:55;9.60;;;3.50;;
20653;SDS011;21083;50.898;4.902;2023-02-28T12:53:25;7.38;;;3.85;;
20653;SDS011;21083;50.898;4.902;2023-02-28T12:55:58;8.00;;;2.05;;
20653;SDS011;21083;50.898;4.902;2023-02-28T12:58:34;4.93;;;2.15;;
20653;SDS011;21083;50.898;4.902;2023-02-28T13:01:13;5.72;;;2.13;;
20653;SDS011;21083;50.898;4.902;2023-02-28T13:04:14;7.95;;;2.08;;
20653;SDS011;21083;50.898;4.902;2023-02-28T13:07:23;6.22;;;2.20;;
20653;SDS011;21083;50.898;4.902;2023-02-28T13:10:08;9.30;;;3.72;;
20653;SDS011;21083;50.898;4.902;2023-02-28T13:12:36;9.07;;;2.20;;
20653;SDS011;21083;50.898;4.902;2023-02-28T13:15:16;4.95;;;2.00;;
20653;SDS011;21083;50.898;4.902;2023-02-28T13:17:49;10.50;;;2.28;;
20653;SDS011;21083;50.898;4.902;2023-02-28T13:20:18;10.10;;;2.13;;
20653;SDS011;21083;50.898;4.902;2023-02-28T13:22:47;4.57;;;1.80;;
20653;SDS011;21083;50.898;4.902;2023-02-28T13:34:35;4.97;;;2.20;;
20653;SDS011;21083;50.898;4.902;2023-02-28T13:40:06;5.35;;;2.25;;
20653;SDS011;21083;50.898;4.902;2023-02-28T13:42:49;6.93;;;2.10;;
20653;SDS011;21083;50.898;4.902;2023-02-28T13:45:21;8.85;;;2.08;;
20653;SDS011;21083;50.898;4.902;2023-02-28T13:47:54;9.00;;;2.30;;
20653;SDS011;21083;50.898;4.902;2023-02-28T13:50:27;6.22;;;2.30;;
20653;SDS011;21083;50.898;4.902;2023-02-28T13:56:02;14.25;;;2.63;;
20653;SDS011;21083;50.898;4.902;2023-02-28T13:58:48;6.60;;;2.15;;
20653;SDS011;21083;50.898;4.902;2023-02-28T14:04:33;5.93;;;2.65;;
20653;SDS011;21083;50.898;4.902;2023-02-28T14:07:18;6.97;;;2.50;;
20653;SDS011;21083;50.898;4.902;2023-02-28T14:09:49;6.18;;;2.30;;
20653;SDS011;21083;50.898;4.902;2023-02-28T14:15:31;5.75;;;2.47;;
20653;SDS011;21083;50.898;4.902;2023-02-28T14:18:14;4.60;;;2.20;;
20653;SDS011;21083;50.898;4.902;2023-02-28T14:20:55;9.90;;;2.53;;
20653;SDS011;21083;50.898;4.902;2023-02-28T14:23:34;5.38;;;2.28;;
20653;SDS011;21083;50.898;4.902;2023-02-28T14:26:14;6.88;;;2.50;;
20653;SDS011;21083;50.898;4.902;2023-02-28T14:28:56;7.85;;;2.42;;
20653;SDS011;21083;50.898;4.902;2023-02-28T14:31:42;6.32;;;2.60;;
20653;SDS011;21083;50.898;4.902;2023-02-28T14:34:23;8.82;;;2.28;;
20653;SDS011;21083;50.898;4.902;2023-02-28T14:37:02;5.00;;;2.25;;
20653;SDS011;21083;50.898;4.902;2023-02-28T14:39:30;5.22;;;1.95;;
20653;SDS011;21083;50.898;4.902;2023-02-28T14:41:58;7.45;;;2.40;;
20653;SDS011;21083;50.898;4.902;2023-02-28T14:44:30;6.18;;;2.50;;
20653;SDS011;21083;50.898;4.902;2023-02-28T14:46:59;7.63;;;2.47;;
20653;SDS011;21083;50.898;4.902;2023-02-28T14:49:29;4.50;;;2.25;;
20653;SDS011;21083;50.898;4.902;2023-02-28T14:52:02;5.65;;;2.17;;
20653;SDS011;21083;50.898;4.902;2023-02-28T14:54:34;6.78;;;2.20;;
20653;SDS011;21083;50.898;4.902;2023-02-28T14:57:02;7.55;;;2.65;;
20653;SDS011;21083;50.898;4.902;2023-02-28T14:59:30;6.97;;;2.05;;
20653;SDS011;21083;50.898;4.902;2023-02-28T15:02:19;6.90;;;2.30;;
20653;SDS011;21083;50.898;4.902;2023-02-28T15:04:55;5.90;;;2.10;;
20653;SDS011;21083;50.898;4.902;2023-02-28T15:07:22;6.47;;;2.30;;
20653;SDS011;21083;50.898;4.902;2023-02-28T15:10:09;6.53;;;2.30;;
20653;SDS011;21083;50.898;4.902;2023-02-28T15:12:39;8.48;;;2.60;;
20653;SDS011;21083;50.898;4.902;2023-02-28T15:15:14;7.18;;;2.40;;
20653;SDS011;21083;50.898;4.902;2023-02-28T15:17:44;6.43;;;2.30;;
20653;SDS011;21083;50.898;4.902;2023-02-28T15:20:16;7.90;;;2.90;;
20653;SDS011;21083;50.898;4.902;2023-02-28T15:22:44;5.70;;;2.38;;
20653;SDS011;21083;50.898;4.902;2023-02-28T15:25:13;8.88;;;2.78;;
20653;SDS011;21083;50.898;4.902;2023-02-28T15:27:45;10.77;;;3.42;;
20653;SDS011;21083;50.898;4.902;2023-02-28T15:30:16;6.18;;;2.65;;
20653;SDS011;21083;50.898;4.902;2023-02-28T15:32:48;7.53;;;3.00;;
20653;SDS011;21083;50.898;4.902;2023-02-28T15:35:30;7.00;;;2.90;;